sensor_id;sensor_type;location;lat;lon;timestamp;pressure;altitude;pressure_sealevel;temperature;humidity
67931;BME280;54726;52.000;5.954;2022-09-09T00:00:46;100398.75;;;13.96;89.94
67931;BME280;54726;52.000;5.954;2022-09-09T00:01:51;100405.88;;;13.96;90.12
67931;BME280;54726;52.000;5.954;2022-09-09T00:03:00;100405.03;;;13.95;89.86
67931;BME280;54726;52.000;5.954;2022-09-09T00:04:05;100408.63;;;13.94;89.89
67931;BME280;54726;52.000;5.954;2022-09-09T00:05:16;100405.78;;;13.97;90.12
67931;BME280;54726;52.000;5.954;2022-09-09T00:06:23;100406.75;;;13.96;89.67
67931;BME280;54726;52.000;5.954;2022-09-09T00:07:33;100396.94;;;13.97;89.89
67931;BME280;54726;52.000;5.954;2022-09-09T00:08:43;100404.16;;;13.95;90.10
67931;BME280;54726;52.000;5.954;2022-09-09T00:09:52;100402.44;;;13.94;89.99
67931;BME280;54726;52.000;5.954;2022-09-09T00:10:58;100405.97;;;13.94;89.98
67931;BME280;54726;52.000;5.954;2022-09-09T00:12:06;100404.16;;;13.95;90.08
67931;BME280;54726;52.000;5.954;2022-09-09T00:13:16;100409.59;;;13.93;89.91
67931;BME280;54726;52.000;5.954;2022-09-09T00:14:23;100399.00;;;13.92;89.84
67931;BME280;54726;52.000;5.954;2022-09-09T00:15:30;100398.81;;;13.95;89.83
67931;BME280;54726;52.000;5.954;2022-09-09T00:16:36;100405.03;;;13.95;90.05
67931;BME280;54726;52.000;5.954;2022-09-09T00:17:43;100401.41;;;13.96;90.32
67931;BME280;54726;52.000;5.954;2022-09-09T00:18:55;100396.06;;;13.96;89.83
67931;BME280;54726;52.000;5.954;2022-09-09T00:20:02;100398.81;;;13.95;89.97
67931;BME280;54726;52.000;5.954;2022-09-09T00:21:06;100387.31;;;13.94;89.96
67931;BME280;54726;52.000;5.954;2022-09-09T00:22:17;100383.72;;;13.95;90.09
67931;BME280;54726;52.000;5.954;2022-09-09T00:23:23;100395.22;;;13.96;89.90
67931;BME280;54726;52.000;5.954;2022-09-09T00:24:27;100391.59;;;13.97;89.93
67931;BME280;54726;52.000;5.954;2022-09-09T00:25:36;100393.41;;;13.96;90.02
67931;BME280;54726;52.000;5.954;2022-09-09T00:26:40;100396.06;;;13.96;89.89
67931;BME280;54726;52.000;5.954;2022-09-09T00:27:46;100396.06;;;13.96;90.08
67931;BME280;54726;52.000;5.954;2022-09-09T00:28:52;100393.59;;;13.93;90.34
67931;BME280;54726;52.000;5.954;2022-09-09T00:29:56;100397.78;;;13.97;90.09
67931;BME280;54726;52.000;5.954;2022-09-09T00:30:59;100390.94;;;13.93;89.92
67931;BME280;54726;52.000;5.954;2022-09-09T00:32:12;100390.94;;;13.93;90.29
67931;BME280;54726;52.000;5.954;2022-09-09T00:33:14;100399.78;;;13.94;90.27
67931;BME280;54726;52.000;5.954;2022-09-09T00:34:19;100393.69;;;13.92;90.48
67931;BME280;54726;52.000;5.954;2022-09-09T00:35:23;100390.94;;;13.93;90.59
67931;BME280;54726;52.000;5.954;2022-09-09T00:36:26;100395.41;;;13.93;90.44
67931;BME280;54726;52.000;5.954;2022-09-09T00:37:29;100397.22;;;13.92;90.43
67931;BME280;54726;52.000;5.954;2022-09-09T00:38:33;100393.88;;;13.88;90.46
67931;BME280;54726;52.000;5.954;2022-09-09T00:39:37;100395.50;;;13.91;90.67
67931;BME280;54726;52.000;5.954;2022-09-09T00:40:46;100395.41;;;13.93;90.75
67931;BME280;54726;52.000;5.954;2022-09-09T00:41:58;100395.41;;;13.93;90.73
67931;BME280;54726;52.000;5.954;2022-09-09T00:43:19;100396.28;;;13.93;90.48
67931;BME280;54726;52.000;5.954;2022-09-09T00:44:29;100391.22;;;13.88;90.27
67931;BME280;54726;52.000;5.954;2022-09-09T00:45:48;100386.44;;;13.94;90.48
67931;BME280;54726;52.000;5.954;2022-09-09T00:47:04;100392.63;;;13.94;90.47
67931;BME280;54726;52.000;5.954;2022-09-09T00:48:10;100389.03;;;13.95;90.37
67931;BME280;54726;52.000;5.954;2022-09-09T00:49:15;100398.81;;;13.95;90.37
67931;BME280;54726;52.000;5.954;2022-09-09T00:50:33;100387.31;;;13.94;90.75
67931;BME280;54726;52.000;5.954;2022-09-09T00:51:44;100386.38;;;13.95;90.52
67931;BME280;54726;52.000;5.954;2022-09-09T00:52:55;100376.56;;;13.96;90.73
67931;BME280;54726;52.000;5.954;2022-09-09T00:54:13;100383.78;;;13.94;90.65
67931;BME280;54726;52.000;5.954;2022-09-09T00:55:19;100382.34;;;13.88;90.72
67931;BME280;54726;52.000;5.954;2022-09-09T00:56:26;100382.34;;;13.88;90.60
67931;BME280;54726;52.000;5.954;2022-09-09T00:57:31;100382.16;;;13.91;90.51
67931;BME280;54726;52.000;5.954;2022-09-09T00:58:31;100385.78;;;13.90;90.73
67931;BME280;54726;52.000;5.954;2022-09-09T00:59:35;100382.34;;;13.88;90.47
67931;BME280;54726;52.000;5.954;2022-09-09T01:00:43;100385.13;;;13.86;91.09
67931;BME280;54726;52.000;5.954;2022-09-09T01:01:44;100374.63;;;13.83;90.62
67931;BME280;54726;52.000;5.954;2022-09-09T01:02:52;100379.03;;;13.84;90.82
67931;BME280;54726;52.000;5.954;2022-09-09T01:03:55;100379.03;;;13.84;90.79
67931;BME280;54726;52.000;5.954;2022-09-09T01:05:01;100382.63;;;13.83;90.78
67931;BME280;54726;52.000;5.954;2022-09-09T01:06:13;100378.38;;;13.81;90.88
67931;BME280;54726;52.000;5.954;2022-09-09T01:07:17;100374.94;;;13.79;90.62
67931;BME280;54726;52.000;5.954;2022-09-09T01:08:32;100373.19;;;13.78;91.01
67931;BME280;54726;52.000;5.954;2022-09-09T01:09:42;100379.50;;;13.77;91.08
67931;BME280;54726;52.000;5.954;2022-09-09T01:10:49;100379.69;;;13.74;90.82
67931;BME280;54726;52.000;5.954;2022-09-09T01:12:01;100380.53;;;13.74;91.20
67931;BME280;54726;52.000;5.954;2022-09-09T01:13:09;100379.03;;;13.70;91.25
67931;BME280;54726;52.000;5.954;2022-09-09T01:14:19;100382.53;;;13.71;91.38
67931;BME280;54726;52.000;5.954;2022-09-09T01:15:26;100388.66;;;13.73;90.91
67931;BME280;54726;52.000;5.954;2022-09-09T01:16:28;100386.16;;;13.70;90.97
67931;BME280;54726;52.000;5.954;2022-09-09T01:17:32;100385.22;;;13.71;91.30
67931;BME280;54726;52.000;5.954;2022-09-09T01:18:37;100380.84;;;13.70;91.62
67931;BME280;54726;52.000;5.954;2022-09-09T01:19:49;100380.06;;;13.68;91.68
67931;BME280;54726;52.000;5.954;2022-09-09T01:21:00;100379.56;;;13.61;91.74
67931;BME280;54726;52.000;5.954;2022-09-09T01:22:11;100383.38;;;13.57;91.57
67931;BME280;54726;52.000;5.954;2022-09-09T01:23:28;100385.00;;;13.59;91.95
67931;BME280;54726;52.000;5.954;2022-09-09T01:24:38;100385.00;;;13.59;91.47
67931;BME280;54726;52.000;5.954;2022-09-09T01:26:15;100381.56;;;13.57;91.45
67931;BME280;54726;52.000;5.954;2022-09-09T01:27:19;100383.47;;;13.55;91.53
67931;BME280;54726;52.000;5.954;2022-09-09T01:28:25;100385.19;;;13.56;91.58
67931;BME280;54726;52.000;5.954;2022-09-09T01:29:27;100390.53;;;13.56;91.46
67931;BME280;54726;52.000;5.954;2022-09-09T01:30:27;100388.72;;;13.57;91.66
67931;BME280;54726;52.000;5.954;2022-09-09T01:31:31;100387.00;;;13.56;91.95
67931;BME280;54726;52.000;5.954;2022-09-09T01:32:40;100383.75;;;13.51;92.24
67931;BME280;54726;52.000;5.954;2022-09-09T01:33:41;100386.50;;;13.49;92.06
67931;BME280;54726;52.000;5.954;2022-09-09T01:34:41;100389.16;;;13.49;92.04
67931;BME280;54726;52.000;5.954;2022-09-09T01:35:46;100391.94;;;13.48;91.76
67931;BME280;54726;52.000;5.954;2022-09-09T01:36:54;100380.50;;;13.46;92.16
67931;BME280;54726;52.000;5.954;2022-09-09T01:37:56;100379.66;;;13.45;92.15
67931;BME280;54726;52.000;5.954;2022-09-09T01:38:56;100387.66;;;13.45;92.07
67931;BME280;54726;52.000;5.954;2022-09-09T01:39:57;100378.09;;;13.41;92.21
67931;BME280;54726;52.000;5.954;2022-09-09T01:40:59;100380.03;;;13.39;92.16
67931;BME280;54726;52.000;5.954;2022-09-09T01:41:59;100387.84;;;13.42;92.27
67931;BME280;54726;52.000;5.954;2022-09-09T01:43:00;100387.91;;;13.40;92.54
67931;BME280;54726;52.000;5.954;2022-09-09T01:44:01;100388.75;;;13.41;92.25
67931;BME280;54726;52.000;5.954;2022-09-09T01:45:03;100387.06;;;13.40;92.32
67931;BME280;54726;52.000;5.954;2022-09-09T01:46:04;100389.81;;;13.38;92.17
67931;BME280;54726;52.000;5.954;2022-09-09T01:47:05;100387.25;;;13.37;92.37
67931;BME280;54726;52.000;5.954;2022-09-09T01:48:06;100383.72;;;13.36;92.31
67931;BME280;54726;52.000;5.954;2022-09-09T01:49:08;100382.09;;;13.34;92.30
67931;BME280;54726;52.000;5.954;2022-09-09T01:50:10;100384.00;;;13.32;92.73
67931;BME280;54726;52.000;5.954;2022-09-09T01:51:10;100386.66;;;13.32;92.43
67931;BME280;54726;52.000;5.954;2022-09-09T01:52:11;100379.69;;;13.29;92.60
67931;BME280;54726;52.000;5.954;2022-09-09T01:53:12;100383.31;;;13.28;92.64
67931;BME280;54726;52.000;5.954;2022-09-09T01:54:13;100380.75;;;13.27;92.97
67931;BME280;54726;52.000;5.954;2022-09-09T01:55:14;100384.38;;;13.26;92.80
67931;BME280;54726;52.000;5.954;2022-09-09T01:56:24;100382.59;;;13.25;92.98
67931;BME280;54726;52.000;5.954;2022-09-09T01:57:30;100382.72;;;13.23;92.65
67931;BME280;54726;52.000;5.954;2022-09-09T01:58:40;100374.72;;;13.23;92.87
67931;BME280;54726;52.000;5.954;2022-09-09T01:59:50;100374.78;;;13.21;92.66
67931;BME280;54726;52.000;5.954;2022-09-09T02:00:59;100378.34;;;13.22;92.59
67931;BME280;54726;52.000;5.954;2022-09-09T02:02:09;100374.97;;;13.18;92.79
67931;BME280;54726;52.000;5.954;2022-09-09T02:03:17;100375.75;;;13.20;92.51
67931;BME280;54726;52.000;5.954;2022-09-09T02:04:33;100368.03;;;13.16;92.66
67931;BME280;54726;52.000;5.954;2022-09-09T02:05:37;100374.31;;;13.15;92.79
67931;BME280;54726;52.000;5.954;2022-09-09T02:06:40;100369.94;;;13.14;92.63
67931;BME280;54726;52.000;5.954;2022-09-09T02:07:42;100374.50;;;13.12;92.70
67931;BME280;54726;52.000;5.954;2022-09-09T02:08:45;100368.19;;;13.13;92.60
67931;BME280;54726;52.000;5.954;2022-09-09T02:09:51;100370.97;;;13.11;92.86
67931;BME280;54726;52.000;5.954;2022-09-09T02:10:56;100371.06;;;13.10;93.10
67931;BME280;54726;52.000;5.954;2022-09-09T02:12:06;100365.84;;;13.08;92.82
67931;BME280;54726;52.000;5.954;2022-09-09T02:13:11;100365.91;;;13.07;92.68
67931;BME280;54726;52.000;5.954;2022-09-09T02:14:17;100369.59;;;13.04;92.98
67931;BME280;54726;52.000;5.954;2022-09-09T02:15:30;100366.16;;;13.02;92.90
67931;BME280;54726;52.000;5.954;2022-09-09T02:16:37;100363.69;;;12.99;93.16
67931;BME280;54726;52.000;5.954;2022-09-09T02:17:40;100362.94;;;12.97;93.18
67931;BME280;54726;52.000;5.954;2022-09-09T02:18:49;100363.88;;;12.96;93.09
67931;BME280;54726;52.000;5.954;2022-09-09T02:19:54;100370.16;;;12.95;93.01
67931;BME280;54726;52.000;5.954;2022-09-09T02:20:58;100363.97;;;12.94;93.34
67931;BME280;54726;52.000;5.954;2022-09-09T02:22:00;100369.38;;;12.93;92.97
67931;BME280;54726;52.000;5.954;2022-09-09T02:23:01;100359.00;;;12.88;93.19
67931;BME280;54726;52.000;5.954;2022-09-09T02:24:04;100371.25;;;12.91;93.00
67931;BME280;54726;52.000;5.954;2022-09-09T02:25:07;100367.84;;;12.89;93.30
67931;BME280;54726;52.000;5.954;2022-09-09T02:26:09;100370.50;;;12.89;93.26
67931;BME280;54726;52.000;5.954;2022-09-09T02:27:13;100361.75;;;12.87;93.26
67931;BME280;54726;52.000;5.954;2022-09-09T02:28:15;100362.78;;;12.84;93.08
67931;BME280;54726;52.000;5.954;2022-09-09T02:29:19;100361.75;;;12.87;93.14
67931;BME280;54726;52.000;5.954;2022-09-09T02:30:21;100365.19;;;12.89;93.30
67931;BME280;54726;52.000;5.954;2022-09-09T02:31:23;100356.44;;;12.87;92.97
67931;BME280;54726;52.000;5.954;2022-09-09T02:32:26;100368.78;;;12.88;92.96
67931;BME280;54726;52.000;5.954;2022-09-09T02:33:33;100361.75;;;12.87;93.12
67931;BME280;54726;52.000;5.954;2022-09-09T02:34:40;100357.56;;;12.83;93.22
67931;BME280;54726;52.000;5.954;2022-09-09T02:35:43;100356.59;;;12.84;93.12
67931;BME280;54726;52.000;5.954;2022-09-09T02:36:45;100358.41;;;12.83;93.24
67931;BME280;54726;52.000;5.954;2022-09-09T02:37:46;100365.56;;;12.83;93.06
67931;BME280;54726;52.000;5.954;2022-09-09T02:38:47;100352.50;;;12.78;93.11
67931;BME280;54726;52.000;5.954;2022-09-09T02:39:48;100350.69;;;12.79;93.13
67931;BME280;54726;52.000;5.954;2022-09-09T02:40:49;100356.00;;;12.79;93.12
67931;BME280;54726;52.000;5.954;2022-09-09T02:41:50;100345.53;;;12.75;93.21
67931;BME280;54726;52.000;5.954;2022-09-09T02:42:54;100363.31;;;12.75;93.19
67931;BME280;54726;52.000;5.954;2022-09-09T02:43:55;100361.69;;;12.72;93.13
67931;BME280;54726;52.000;5.954;2022-09-09T02:44:55;100361.75;;;12.71;93.20
67931;BME280;54726;52.000;5.954;2022-09-09T02:46:02;100360.91;;;12.70;93.29
67931;BME280;54726;52.000;5.954;2022-09-09T02:47:14;100366.16;;;12.72;93.11
67931;BME280;54726;52.000;5.954;2022-09-09T02:48:21;100350.28;;;12.70;93.45
67931;BME280;54726;52.000;5.954;2022-09-09T02:49:29;100355.59;;;12.70;93.05
67931;BME280;54726;52.000;5.954;2022-09-09T02:50:34;100353.09;;;12.67;93.17
67931;BME280;54726;52.000;5.954;2022-09-09T02:51:40;100361.09;;;12.67;93.30
67931;BME280;54726;52.000;5.954;2022-09-09T02:52:54;100354.25;;;12.63;93.33
67931;BME280;54726;52.000;5.954;2022-09-09T02:54:04;100352.50;;;12.62;93.27
67931;BME280;54726;52.000;5.954;2022-09-09T02:55:16;100349.00;;;12.62;93.28
67931;BME280;54726;52.000;5.954;2022-09-09T02:56:21;100352.69;;;12.59;93.19
67931;BME280;54726;52.000;5.954;2022-09-09T02:57:26;100344.81;;;12.58;93.38
67931;BME280;54726;52.000;5.954;2022-09-09T02:58:29;100350.03;;;12.59;93.19
67931;BME280;54726;52.000;5.954;2022-09-09T02:59:30;100342.16;;;12.58;93.20
67931;BME280;54726;52.000;5.954;2022-09-09T03:00:31;100344.81;;;12.58;93.21
67931;BME280;54726;52.000;5.954;2022-09-09T03:01:32;100352.88;;;12.56;93.12
67931;BME280;54726;52.000;5.954;2022-09-09T03:02:32;100352.78;;;12.58;93.14
67931;BME280;54726;52.000;5.954;2022-09-09T03:03:33;100350.19;;;12.56;93.33
67931;BME280;54726;52.000;5.954;2022-09-09T03:04:33;100353.81;;;12.55;93.27
67931;BME280;54726;52.000;5.954;2022-09-09T03:05:34;100359.22;;;12.53;93.44
67931;BME280;54726;52.000;5.954;2022-09-09T03:06:34;100359.13;;;12.55;93.31
67931;BME280;54726;52.000;5.954;2022-09-09T03:07:35;100342.66;;;12.48;93.21
67931;BME280;54726;52.000;5.954;2022-09-09T03:08:35;100353.91;;;12.53;93.36
67931;BME280;54726;52.000;5.954;2022-09-09T03:09:36;100354.84;;;12.52;93.57
67931;BME280;54726;52.000;5.954;2022-09-09T03:10:36;100354.94;;;12.51;93.35
67931;BME280;54726;52.000;5.954;2022-09-09T03:11:37;100352.53;;;12.46;93.67
67931;BME280;54726;52.000;5.954;2022-09-09T03:12:37;100364.88;;;12.47;93.62
67931;BME280;54726;52.000;5.954;2022-09-09T03:13:39;100355.34;;;12.43;93.74
67931;BME280;54726;52.000;5.954;2022-09-09T03:14:40;100365.13;;;12.43;93.36
67931;BME280;54726;52.000;5.954;2022-09-09T03:15:40;100354.50;;;12.43;93.86
67931;BME280;54726;52.000;5.954;2022-09-09T03:16:41;100364.28;;;12.42;93.84
67931;BME280;54726;52.000;5.954;2022-09-09T03:17:41;100359.06;;;12.41;93.74
67931;BME280;54726;52.000;5.954;2022-09-09T03:18:42;100355.44;;;12.42;93.85
67931;BME280;54726;52.000;5.954;2022-09-09T03:19:42;100358.97;;;12.42;93.68
67931;BME280;54726;52.000;5.954;2022-09-09T03:20:43;100361.78;;;12.39;93.74
67931;BME280;54726;52.000;5.954;2022-09-09T03:21:43;100357.59;;;12.35;93.86
67931;BME280;54726;52.000;5.954;2022-09-09T03:22:44;100352.44;;;12.32;93.82
67931;BME280;54726;52.000;5.954;2022-09-09T03:23:44;100369.00;;;12.37;93.92
67931;BME280;54726;52.000;5.954;2022-09-09T03:24:44;100370.03;;;12.35;93.92
67931;BME280;54726;52.000;5.954;2022-09-09T03:25:48;100370.03;;;12.35;93.88
67931;BME280;54726;52.000;5.954;2022-09-09T03:26:48;100370.03;;;12.35;93.95
67931;BME280;54726;52.000;5.954;2022-09-09T03:27:49;100367.38;;;12.35;93.89
67931;BME280;54726;52.000;5.954;2022-09-09T03:28:50;100370.03;;;12.35;94.06
67931;BME280;54726;52.000;5.954;2022-09-09T03:29:51;100365.66;;;12.34;93.83
67931;BME280;54726;52.000;5.954;2022-09-09T03:30:51;100370.19;;;12.31;93.92
67931;BME280;54726;52.000;5.954;2022-09-09T03:31:52;100360.50;;;12.30;93.81
67931;BME280;54726;52.000;5.954;2022-09-09T03:32:52;100366.78;;;12.29;93.80
67931;BME280;54726;52.000;5.954;2022-09-09T03:33:53;100369.44;;;12.29;94.12
67931;BME280;54726;52.000;5.954;2022-09-09T03:34:54;100367.72;;;12.28;94.15
67931;BME280;54726;52.000;5.954;2022-09-09T03:35:54;100368.66;;;12.27;94.10
67931;BME280;54726;52.000;5.954;2022-09-09T03:36:54;100369.59;;;12.26;94.26
67931;BME280;54726;52.000;5.954;2022-09-09T03:37:55;100370.47;;;12.27;94.18
67931;BME280;54726;52.000;5.954;2022-09-09T03:38:55;100372.41;;;12.23;94.21
67931;BME280;54726;52.000;5.954;2022-09-09T03:39:56;100375.00;;;12.25;94.21
67931;BME280;54726;52.000;5.954;2022-09-09T03:40:56;100369.69;;;12.25;93.92
67931;BME280;54726;52.000;5.954;2022-09-09T03:41:57;100365.22;;;12.25;94.06
67931;BME280;54726;52.000;5.954;2022-09-09T03:42:57;100373.13;;;12.27;94.05
67931;BME280;54726;52.000;5.954;2022-09-09T03:43:59;100366.06;;;12.26;94.15
67931;BME280;54726;52.000;5.954;2022-09-09T03:44:59;100367.88;;;12.25;94.09
67931;BME280;54726;52.000;5.954;2022-09-09T03:46:00;100368.06;;;12.22;94.16
67931;BME280;54726;52.000;5.954;2022-09-09T03:47:00;100367.09;;;12.23;94.28
67931;BME280;54726;52.000;5.954;2022-09-09T03:48:01;100377.72;;;12.23;94.03
67931;BME280;54726;52.000;5.954;2022-09-09T03:49:02;100367.88;;;12.25;94.26
67931;BME280;54726;52.000;5.954;2022-09-09T03:50:03;100369.88;;;12.22;94.40
67931;BME280;54726;52.000;5.954;2022-09-09T03:51:04;100365.41;;;12.22;94.25
67931;BME280;54726;52.000;5.954;2022-09-09T03:52:04;100366.25;;;12.23;94.19
67931;BME280;54726;52.000;5.954;2022-09-09T03:53:05;100366.25;;;12.23;94.26
67931;BME280;54726;52.000;5.954;2022-09-09T03:54:05;100372.41;;;12.23;94.23
67931;BME280;54726;52.000;5.954;2022-09-09T03:55:07;100361.09;;;12.20;94.15
67931;BME280;54726;52.000;5.954;2022-09-09T03:56:08;100360.16;;;12.21;94.20
67931;BME280;54726;52.000;5.954;2022-09-09T03:57:09;100363.69;;;12.21;94.34
67931;BME280;54726;52.000;5.954;2022-09-09T03:58:10;100352.88;;;12.24;94.24
67931;BME280;54726;52.000;5.954;2022-09-09T03:59:11;100359.06;;;12.25;94.00
67931;BME280;54726;52.000;5.954;2022-09-09T04:00:12;100363.34;;;12.27;94.06
67931;BME280;54726;52.000;5.954;2022-09-09T04:01:14;100359.72;;;12.28;94.01
67931;BME280;54726;52.000;5.954;2022-09-09T04:02:14;100361.53;;;12.28;94.01
67931;BME280;54726;52.000;5.954;2022-09-09T04:03:16;100359.84;;;12.27;94.05
67931;BME280;54726;52.000;5.954;2022-09-09T04:04:16;100360.59;;;12.29;94.03
67931;BME280;54726;52.000;5.954;2022-09-09T04:05:16;100362.22;;;12.31;94.07
67931;BME280;54726;52.000;5.954;2022-09-09T04:06:17;100362.22;;;12.31;93.97
67931;BME280;54726;52.000;5.954;2022-09-09T04:07:17;100362.22;;;12.31;94.03
67931;BME280;54726;52.000;5.954;2022-09-09T04:08:18;100363.84;;;12.34;93.80
67931;BME280;54726;52.000;5.954;2022-09-09T04:09:19;100362.03;;;12.35;94.18
67931;BME280;54726;52.000;5.954;2022-09-09T04:10:19;100361.13;;;12.36;94.16
67931;BME280;54726;52.000;5.954;2022-09-09T04:11:20;100361.97;;;12.36;93.90
67931;BME280;54726;52.000;5.954;2022-09-09T04:12:20;100358.47;;;12.36;93.92
67931;BME280;54726;52.000;5.954;2022-09-09T04:13:21;100365.47;;;12.37;94.11
67931;BME280;54726;52.000;5.954;2022-09-09T04:14:22;100364.63;;;12.36;94.07
67931;BME280;54726;52.000;5.954;2022-09-09T04:15:23;100358.34;;;12.37;94.33
67931;BME280;54726;52.000;5.954;2022-09-09T04:16:23;100367.91;;;12.41;94.09
67931;BME280;54726;52.000;5.954;2022-09-09T04:17:24;100357.16;;;12.43;94.11
67931;BME280;54726;52.000;5.954;2022-09-09T04:18:25;100357.16;;;12.43;94.17
67931;BME280;54726;52.000;5.954;2022-09-09T04:19:26;100360.66;;;12.43;94.02
67931;BME280;54726;52.000;5.954;2022-09-09T04:20:26;100355.28;;;12.45;93.93
67931;BME280;54726;52.000;5.954;2022-09-09T04:21:27;100362.28;;;12.46;94.09
67931;BME280;54726;52.000;5.954;2022-09-09T04:22:27;100354.31;;;12.46;94.26
67931;BME280;54726;52.000;5.954;2022-09-09T04:23:28;100351.66;;;12.46;93.98
67931;BME280;54726;52.000;5.954;2022-09-09T04:24:28;100353.41;;;12.47;94.14
67931;BME280;54726;52.000;5.954;2022-09-09T04:25:29;100353.41;;;12.47;94.29
67931;BME280;54726;52.000;5.954;2022-09-09T04:26:29;100348.06;;;12.47;94.19
67931;BME280;54726;52.000;5.954;2022-09-09T04:27:30;100343.50;;;12.49;94.28
67931;BME280;54726;52.000;5.954;2022-09-09T04:28:31;100344.38;;;12.49;94.34
67931;BME280;54726;52.000;5.954;2022-09-09T04:29:34;100348.75;;;12.50;94.25
67931;BME280;54726;52.000;5.954;2022-09-09T04:30:34;100348.75;;;12.50;94.33
67931;BME280;54726;52.000;5.954;2022-09-09T04:31:35;100340.00;;;12.48;94.38
67931;BME280;54726;52.000;5.954;2022-09-09T04:32:35;100340.84;;;12.49;94.38
67931;BME280;54726;52.000;5.954;2022-09-09T04:33:36;100338.09;;;12.50;94.08
67931;BME280;54726;52.000;5.954;2022-09-09T04:34:36;100341.72;;;12.49;94.23
67931;BME280;54726;52.000;5.954;2022-09-09T04:35:38;100337.25;;;12.50;94.56
67931;BME280;54726;52.000;5.954;2022-09-09T04:36:39;100342.47;;;12.51;94.32
67931;BME280;54726;52.000;5.954;2022-09-09T04:37:39;100338.97;;;12.51;94.23
67931;BME280;54726;52.000;5.954;2022-09-09T04:38:39;100339.91;;;12.50;94.56
67931;BME280;54726;52.000;5.954;2022-09-09T04:39:40;100342.41;;;12.53;94.58
67931;BME280;54726;52.000;5.954;2022-09-09T04:40:42;100337.09;;;12.53;94.34
67931;BME280;54726;52.000;5.954;2022-09-09T04:41:42;100344.97;;;12.54;94.52
67931;BME280;54726;52.000;5.954;2022-09-09T04:42:43;100340.59;;;12.53;94.71
67931;BME280;54726;52.000;5.954;2022-09-09T04:43:43;100337.94;;;12.53;94.66
67931;BME280;54726;52.000;5.954;2022-09-09T04:44:45;100342.22;;;12.56;94.47
67931;BME280;54726;52.000;5.954;2022-09-09T04:45:47;100335.09;;;12.57;94.82
67931;BME280;54726;52.000;5.954;2022-09-09T04:46:48;100332.34;;;12.58;94.74
67931;BME280;54726;52.000;5.954;2022-09-09T04:47:48;100340.25;;;12.60;94.81
67931;BME280;54726;52.000;5.954;2022-09-09T04:48:49;100338.44;;;12.60;94.48
67931;BME280;54726;52.000;5.954;2022-09-09T04:49:49;100333.88;;;12.62;94.79
67931;BME280;54726;52.000;5.954;2022-09-09T04:50:56;100332.19;;;12.61;94.60
67931;BME280;54726;52.000;5.954;2022-09-09T04:51:57;100346.25;;;12.63;94.62
67931;BME280;54726;52.000;5.954;2022-09-09T04:52:59;100341.00;;;12.62;94.56
67931;BME280;54726;52.000;5.954;2022-09-09T04:54:00;100333.03;;;12.62;94.50
67931;BME280;54726;52.000;5.954;2022-09-09T04:55:00;100343.59;;;12.63;94.77
67931;BME280;54726;52.000;5.954;2022-09-09T04:56:02;100335.50;;;12.65;94.69
67931;BME280;54726;52.000;5.954;2022-09-09T04:57:03;100347.00;;;12.65;94.81
67931;BME280;54726;52.000;5.954;2022-09-09T04:58:04;100340.75;;;12.66;94.72
67931;BME280;54726;52.000;5.954;2022-09-09T04:59:04;100336.38;;;12.65;94.70
67931;BME280;54726;52.000;5.954;2022-09-09T05:00:08;100337.22;;;12.66;95.08
67931;BME280;54726;52.000;5.954;2022-09-09T05:01:10;100346.09;;;12.66;94.91
67931;BME280;54726;52.000;5.954;2022-09-09T05:02:11;100332.84;;;12.65;94.92
67931;BME280;54726;52.000;5.954;2022-09-09T05:03:11;100338.00;;;12.68;94.76
67931;BME280;54726;52.000;5.954;2022-09-09T05:04:12;100338.84;;;12.68;94.93
67931;BME280;54726;52.000;5.954;2022-09-09T05:05:13;100343.31;;;12.68;94.99
67931;BME280;54726;52.000;5.954;2022-09-09T05:06:15;100338.97;;;12.67;95.09
67931;BME280;54726;52.000;5.954;2022-09-09T05:07:16;100330.78;;;12.70;95.09
67931;BME280;54726;52.000;5.954;2022-09-09T05:08:16;100333.44;;;12.70;94.96
67931;BME280;54726;52.000;5.954;2022-09-09T05:09:16;100336.00;;;12.71;94.88
67931;BME280;54726;52.000;5.954;2022-09-09T05:10:17;100332.59;;;12.69;95.06
67931;BME280;54726;52.000;5.954;2022-09-09T05:11:19;100328.91;;;12.72;95.21
67931;BME280;54726;52.000;5.954;2022-09-09T05:12:20;100334.13;;;12.73;95.13
67931;BME280;54726;52.000;5.954;2022-09-09T05:13:21;100335.69;;;12.77;94.90
67931;BME280;54726;52.000;5.954;2022-09-09T05:14:21;100325.09;;;12.76;95.01
67931;BME280;54726;52.000;5.954;2022-09-09T05:15:23;100329.41;;;12.79;95.13
67931;BME280;54726;52.000;5.954;2022-09-09T05:16:24;100327.50;;;12.81;94.88
67931;BME280;54726;52.000;5.954;2022-09-09T05:17:24;100331.88;;;12.82;94.69
67931;BME280;54726;52.000;5.954;2022-09-09T05:18:24;100335.38;;;12.82;94.96
67931;BME280;54726;52.000;5.954;2022-09-09T05:19:25;100328.28;;;12.83;95.09
67931;BME280;54726;52.000;5.954;2022-09-09T05:20:25;100330.00;;;12.84;95.12
67931;BME280;54726;52.000;5.954;2022-09-09T05:21:26;100330.00;;;12.84;94.86
67931;BME280;54726;52.000;5.954;2022-09-09T05:22:26;100325.53;;;12.84;94.93
67931;BME280;54726;52.000;5.954;2022-09-09T05:23:27;100323.72;;;12.85;95.21
67931;BME280;54726;52.000;5.954;2022-09-09T05:24:27;100328.09;;;12.86;95.13
67931;BME280;54726;52.000;5.954;2022-09-09T05:25:28;100322.78;;;12.86;95.10
67931;BME280;54726;52.000;5.954;2022-09-09T05:26:29;100325.34;;;12.87;95.05
67931;BME280;54726;52.000;5.954;2022-09-09T05:27:29;100320.69;;;12.91;95.94
67931;BME280;54726;52.000;5.954;2022-09-09T05:28:30;100325.09;;;12.92;95.24
67931;BME280;54726;52.000;5.954;2022-09-09T05:29:31;100325.09;;;12.92;95.22
67931;BME280;54726;52.000;5.954;2022-09-09T05:30:33;100320.69;;;12.91;95.41
67931;BME280;54726;52.000;5.954;2022-09-09T05:31:33;100324.97;;;12.93;95.23
67931;BME280;54726;52.000;5.954;2022-09-09T05:32:34;100328.53;;;12.94;95.01